Airfield :
LOGIN :

Register | Disclaimer

   EN    FR    IT 

 










Legend :    VFR   Marginal VFR   IFR   Intensive IFR   Very Intensive IFR
Visi :
Ceiling :
>= 8 km
>= 3000ft
5 to 8 km
1000 to 3000 ft
1500m to 5 km
500 to 1000 ft
800 to 1500m
200 to 500 ft
< 800m
< 200 ft
Symbols :   Thunderstorms  Fog  Heavy snow  Heavy precipitations  Wind > 20 kt
SIGMETs :     Misc.  Thunderstorms  Icing  Turbulence  Mountain Waves  Volcanic Ashes







- Airport Elevation : 147 ft
- IATA code : DUS


EDDL - Düsseldorf Int.

CURRENT METAR :
  • 151420Z 20006KT 150V230 CAVOK 26/10 Q1012 NOSIG

EXPIRED METARs :
  • 151350Z 22007KT 180V260 CAVOK 25/10 Q1012 NOSIG
  • 151320Z 20008KT 150V240 CAVOK 25/11 Q1012 NOSIG
  • 151250Z 20009KT 160V230 CAVOK 25/10 Q1012 NOSIG
  • 151220Z 18010KT 150V220 CAVOK 25/11 Q1012 NOSIG
  • 151150Z 21011KT CAVOK 24/10 Q1012 NOSIG

TAF TAF EDDL
Valid from the 15 at 12:00 until the 16 at 18:00 UTC


151100Z 1512/1618 19009KT CAVOK
BECMG 1517/1520 15004KT
No reported NOTAMs for that airfield.



MET'MAP, your aeronautical weather chart ! - Copyright ORBIFLY December 2007 - Disclaimer

ORBIFLY MET'MAP TEAM :

Programming & Development : Alexandra Zaïnal
Concept & Development : Baudouin d'Aumeries
Co-Development & Prog : Marc-Olivier Méhu
Technical & hardware support : Manuel Goepfert

Contact : metmap@orbifly.com




SOURCES & CREDITS :

   NOAA